Time;durP1;ratioP1;P1;durP2;ratioP2;P2;SDS_P1;SDS_P2;PMS_P1;PMS_P2;Temp;Humidity;BMP_temperature;BMP_pressure;BME280_temperature;BME280_humidity;BME280_pressure;Samples;Min_cycle;Max_cycle;Signal;HPM_P1;HPM_P2
2021/04/01 00:02:07;;;;;;;2.78;1.58;;;18.00;54.30;;;;;;4979587;28;20173;-80
2021/04/01 00:04:34;;;;;;;2.72;1.20;;;18.00;55.10;;;;;;4997203;28;20148;-80
2021/04/01 00:07:01;;;;;;;1.50;1.30;;;17.90;54.40;;;;;;4996529;28;20189;-79
2021/04/01 00:09:26;;;;;;;2.08;1.58;;;17.90;54.40;;;;;;4996451;28;20152;-80
2021/04/01 00:11:53;;;;;;;2.83;1.38;;;17.90;54.40;;;;;;4996472;28;20164;-80
2021/04/01 00:14:21;;;;;;;1.77;1.30;;;17.90;54.40;;;;;;4996377;28;20181;-80
2021/04/01 00:16:48;;;;;;;2.60;1.40;;;17.90;54.40;;;;;;4979330;28;20149;-80
2021/04/01 00:19:22;;;;;;;2.22;1.23;;;17.90;54.40;;;;;;4995601;28;20145;-80
2021/04/01 00:21:57;;;;;;;1.98;1.40;;;17.90;54.20;;;;;;4996024;28;20160;-80
2021/04/01 00:24:23;;;;;;;1.80;1.48;;;18.00;54.30;;;;;;4996287;28;20169;-78
2021/04/01 00:26:51;;;;;;;2.65;1.48;;;17.90;54.30;;;;;;4978415;28;20244;-80
2021/04/01 00:29:26;;;;;;;1.60;1.40;;;17.90;54.40;;;;;;4996916;28;20153;-80
2021/04/01 00:31:53;;;;;;;3.15;1.40;;;17.90;54.40;;;;;;4996571;28;20136;-80
2021/04/01 00:34:18;;;;;;;1.88;1.13;;;17.90;54.30;;;;;;4978386;28;20180;-80
2021/04/01 00:36:47;;;;;;;2.67;1.30;;;17.90;54.40;;;;;;4963198;28;20153;-80
2021/04/01 00:39:21;;;;;;;3.30;1.55;;;17.90;54.40;;;;;;4996323;28;20149;-80
2021/04/01 00:41:47;;;;;;;2.58;1.60;;;17.90;54.40;;;;;;4996228;28;20160;-80
2021/04/01 00:44:16;;;;;;;4.45;1.92;;;17.90;54.40;;;;;;4995969;28;20216;-80
2021/04/01 00:46:47;;;;;;;1.92;1.50;;;17.90;54.40;;;;;;4978597;28;20196;-80
2021/04/01 00:49:14;;;;;;;2.33;1.35;;;17.90;54.40;;;;;;4995544;28;20161;-79
2021/04/01 00:51:41;;;;;;;4.10;1.70;;;17.90;54.40;;;;;;4978067;28;20656;-80
2021/04/01 00:54:09;;;;;;;3.42;1.30;;;17.90;54.40;;;;;;4977763;28;20185;-80
2021/04/01 00:56:35;;;;;;;1.92;1.30;;;17.80;54.40;;;;;;4995403;28;20157;-80
2021/04/01 00:59:03;;;;;;;2.95;1.30;;;17.90;54.50;;;;;;4996561;28;20161;-80
2021/04/01 01:01:47;;;;;;;1.67;1.10;;;17.90;54.40;;;;;;4977932;28;20145;-80
2021/04/01 01:04:13;;;;;;;1.90;1.40;;;17.90;54.40;;;;;;4995492;28;20164;-80
2021/04/01 01:06:42;;;;;;;2.00;1.50;;;17.90;54.40;;;;;;4962138;28;20173;-80
2021/04/01 01:09:09;;;;;;;2.42;1.35;;;17.90;54.40;;;;;;4996073;28;20370;-80
2021/04/01 01:11:37;;;;;;;2.05;1.40;;;17.90;54.50;;;;;;4978187;28;20156;-79
2021/04/01 01:14:04;;;;;;;1.73;1.38;;;17.90;54.40;;;;;;4995467;28;20189;-81
2021/04/01 01:16:32;;;;;;;1.75;1.20;;;17.90;54.50;;;;;;4977536;28;20140;-79
2021/04/01 01:19:01;;;;;;;1.67;1.27;;;17.80;54.50;;;;;;4995744;28;20426;-80
2021/04/01 01:21:27;;;;;;;1.40;1.20;;;17.80;54.60;;;;;;4977380;28;20133;-80
2021/04/01 01:23:54;;;;;;;2.17;1.50;;;17.80;54.40;;;;;;4977681;28;20187;-79
2021/04/01 01:26:20;;;;;;;2.22;1.38;;;17.80;54.50;;;;;;4977596;28;20152;-80
2021/04/01 01:28:46;;;;;;;2.88;1.80;;;17.80;54.50;;;;;;4977912;28;20196;-79
2021/04/01 01:31:13;;;;;;;3.45;1.25;;;17.80;54.50;;;;;;4960815;28;20683;-80
2021/04/01 01:33:41;;;;;;;2.90;1.83;;;17.80;54.50;;;;;;4993591;28;20168;-80
2021/04/01 01:36:10;;;;;;;1.80;1.25;;;17.80;54.60;;;;;;4977619;28;20184;-80
2021/04/01 01:38:37;;;;;;;2.03;1.30;;;17.90;54.40;;;;;;4995301;28;20157;-79
2021/04/01 01:41:03;;;;;;;2.45;1.60;;;17.90;54.40;;;;;;4995357;28;20188;-80
2021/04/01 01:43:30;;;;;;;2.35;1.50;;;17.90;54.30;;;;;;4978009;28;20145;-80
2021/04/01 01:45:58;;;;;;;3.00;1.33;;;17.90;54.40;;;;;;4961296;28;20315;-81
2021/04/01 01:48:24;;;;;;;3.10;1.40;;;17.80;54.40;;;;;;4945788;28;20197;-80
2021/04/01 01:50:51;;;;;;;3.95;1.50;;;17.80;54.50;;;;;;4976837;28;20203;-80
2021/04/01 01:53:17;;;;;;;2.13;1.38;;;17.80;54.50;;;;;;4995234;28;20153;-80
2021/04/01 01:55:52;;;;;;;4.00;1.70;;;17.80;54.50;;;;;;4994333;28;20687;-81
2021/04/01 01:58:27;;;;;;;2.78;1.27;;;17.80;54.50;;;;;;4976655;28;20188;-80
2021/04/01 02:00:55;;;;;;;1.88;1.30;;;17.80;55.10;;;;;;4977910;28;20149;-82
2021/04/01 02:03:23;;;;;;;2.70;1.20;;;17.80;54.60;;;;;;4964925;28;20156;-80
2021/04/01 02:05:51;;;;;;;1.70;1.27;;;17.80;54.60;;;;;;4984882;28;20145;-80
2021/04/01 02:08:22;;;;;;;1.70;1.10;;;17.70;54.60;;;;;;5001281;28;20192;-79
2021/04/01 02:10:51;;;;;;;1.40;1.30;;;17.80;54.60;;;;;;4999844;28;20161;-80
2021/04/01 02:13:18;;;;;;;2.05;1.33;;;17.80;54.60;;;;;;5001919;28;20196;-80
2021/04/01 02:15:45;;;;;;;1.40;1.15;;;17.70;54.60;;;;;;5001872;28;20156;-79
2021/04/01 02:18:11;;;;;;;2.17;1.35;;;17.70;54.50;;;;;;5002348;28;20133;-79
2021/04/01 02:20:41;;;;;;;3.65;1.58;;;17.80;54.50;;;;;;4984123;28;20147;-80
2021/04/01 02:23:08;;;;;;;2.53;1.25;;;17.80;54.40;;;;;;4984191;28;20164;-79
2021/04/01 02:25:34;;;;;;;1.98;1.35;;;17.80;54.40;;;;;;4984099;28;20213;-80
2021/04/01 02:28:03;;;;;;;1.98;1.50;;;17.80;54.40;;;;;;4983983;28;20196;-79
2021/04/01 02:30:31;;;;;;;2.70;1.15;;;17.80;54.40;;;;;;4983710;28;20141;-80
2021/04/01 02:32:57;;;;;;;2.08;1.35;;;17.80;54.50;;;;;;5001052;28;20151;-80
2021/04/01 02:35:25;;;;;;;3.60;1.35;;;17.70;54.50;;;;;;4984352;28;20219;-80
2021/04/01 02:37:50;;;;;;;2.53;1.20;;;17.70;54.50;;;;;;4984625;28;20157;-80
2021/04/01 02:40:17;;;;;;;2.17;1.65;;;17.70;54.60;;;;;;4984426;28;20152;-79
2021/04/01 02:42:44;;;;;;;2.08;1.50;;;17.70;54.60;;;;;;5001480;28;20167;-80
2021/04/01 02:45:11;;;;;;;1.77;1.23;;;17.70;54.50;;;;;;5001345;28;20172;-79
2021/04/01 02:47:40;;;;;;;3.08;1.30;;;17.70;54.60;;;;;;5001388;28;20208;-79
2021/04/01 02:50:07;;;;;;;3.20;1.50;;;17.70;54.30;;;;;;4984764;28;20225;-79
2021/04/01 02:52:35;;;;;;;1.67;1.38;;;17.70;54.30;;;;;;4969047;28;20172;-79
2021/04/01 02:55:03;;;;;;;1.77;1.15;;;17.80;54.40;;;;;;5001608;28;20217;-79
2021/04/01 02:57:29;;;;;;;2.40;1.30;;;17.70;54.40;;;;;;5001619;28;20169;-80
2021/04/01 02:59:56;;;;;;;1.92;1.27;;;17.70;54.50;;;;;;5001699;28;20149;-80
2021/04/01 03:02:25;;;;;;;1.70;1.33;;;17.70;54.40;;;;;;4984700;28;20149;-79
2021/04/01 03:04:52;;;;;;;2.25;1.23;;;17.70;54.40;;;;;;5001857;28;20145;-79
2021/04/01 03:07:20;;;;;;;1.73;1.40;;;17.70;54.40;;;;;;4969062;28;20196;-80
2021/04/01 03:09:52;;;;;;;1.58;1.20;;;17.70;54.40;;;;;;5001859;28;20168;-80
2021/04/01 03:12:18;;;;;;;3.42;1.48;;;17.70;54.50;;;;;;5001680;28;20168;-79
2021/04/01 03:14:52;;;;;;;2.53;1.38;;;17.70;54.50;;;;;;4985246;28;20199;-79
2021/04/01 03:17:21;;;;;;;1.67;1.17;;;17.70;54.60;;;;;;5000454;28;20157;-79
2021/04/01 03:19:47;;;;;;;1.83;1.17;;;17.70;54.50;;;;;;4984933;28;20145;-79
2021/04/01 03:22:14;;;;;;;1.92;1.30;;;17.70;54.50;;;;;;4985227;28;20172;-79
2021/04/01 03:24:42;;;;;;;2.33;1.25;;;17.70;54.40;;;;;;5002033;28;20212;-80
2021/04/01 03:27:08;;;;;;;1.40;1.10;;;17.70;54.50;;;;;;4985182;28;20250;-79
2021/04/01 03:29:35;;;;;;;3.70;1.65;;;17.70;54.50;;;;;;5001901;28;20145;-80
2021/04/01 03:32:09;;;;;;;3.17;1.30;;;17.70;54.50;;;;;;5002112;28;20176;-79
2021/04/01 03:34:36;;;;;;;2.38;1.48;;;17.70;54.50;;;;;;5001841;28;20148;-79
2021/04/01 03:37:10;;;;;;;1.45;1.27;;;17.70;54.50;;;;;;5001990;28;20172;-81
2021/04/01 03:39:38;;;;;;;1.42;1.23;;;17.70;54.60;;;;;;4985266;28;20145;-79
2021/04/01 03:42:14;;;;;;;3.60;1.33;;;17.70;54.60;;;;;;5001845;28;20196;-79
2021/04/01 03:44:49;;;;;;;2.03;1.40;;;17.70;54.40;;;;;;5002022;28;20157;-78
2021/04/01 03:47:23;;;;;;;1.80;1.40;;;17.70;54.40;;;;;;4985284;28;20176;-78
2021/04/01 03:49:49;;;;;;;2.15;1.20;;;17.70;54.40;;;;;;5001761;28;20223;-78
2021/04/01 03:52:23;;;;;;;2.00;1.20;;;17.60;54.40;;;;;;4985334;28;20200;-80
2021/04/01 03:54:54;;;;;;;3.55;1.10;;;17.70;54.50;;;;;;5001789;28;20157;-79
2021/04/01 03:57:21;;;;;;;2.58;1.10;;;17.70;55.20;;;;;;5001744;28;20173;-79
2021/04/01 04:00:07;;;;;;;1.63;1.13;;;17.70;54.60;;;;;;5001496;28;20212;-80
2021/04/01 04:05:19;;;;;;;2.17;1.50;;;17.70;54.20;;;;;;4998157;28;20169;-80
2021/04/01 04:15:49;;;;;;;1.02;0.98;;;17.90;52.90;;;;;;4995871;28;20156;-79
2021/04/01 04:18:17;;;;;;;1.58;0.90;;;17.90;53.00;;;;;;4995440;28;20167;-79
2021/04/01 04:20:44;;;;;;;1.30;1.13;;;17.90;52.60;;;;;;4995710;28;20165;-79
2021/04/01 04:23:13;;;;;;;2.20;0.98;;;18.00;53.10;;;;;;4977316;28;20144;-79
2021/04/01 04:25:39;;;;;;;2.08;1.15;;;18.00;52.70;;;;;;4977358;28;20200;-80
2021/04/01 04:31:12;;;;;;;2.33;1.23;;;18.00;52.80;;;;;;4886598;29;20704;-79
2021/04/01 04:33:39;;;;;;;1.50;1.27;;;18.00;52.50;;;;;;4897792;29;20329;-80
2021/04/01 04:36:08;;;;;;;2.10;1.13;;;18.00;52.50;;;;;;4897143;29;20172;-79
2021/04/01 04:38:35;;;;;;;1.55;1.20;;;18.00;52.60;;;;;;4881700;29;20183;-79
2021/04/01 04:41:01;;;;;;;2.05;1.10;;;18.00;52.20;;;;;;4896901;29;20215;-79
2021/04/01 04:43:28;;;;;;;2.13;1.13;;;18.00;52.60;;;;;;4897204;29;20172;-80
2021/04/01 04:45:54;;;;;;;1.92;1.00;;;18.00;52.30;;;;;;4897076;29;20169;-81
2021/04/01 04:48:19;;;;;;;1.52;1.10;;;18.00;52.30;;;;;;4897029;29;20618;-79
2021/04/01 04:50:46;;;;;;;1.05;0.95;;;17.90;52.30;;;;;;4895843;29;20247;-80
2021/04/01 04:53:14;;;;;;;1.00;0.88;;;18.00;52.00;;;;;;4895966;29;20188;-80
2021/04/01 04:55:59;;;;;;;1.13;1.02;;;18.00;52.00;;;;;;4895261;29;20163;-79
2021/04/01 05:04:37;;;;;;;1.10;1.00;;;18.00;52.30;;;;;;4877651;29;20550;-80
2021/04/01 05:09:16;;;;;;;1.58;1.08;;;17.90;52.40;;;;;;4994619;28;20168;-79
2021/04/01 05:11:44;;;;;;;1.80;0.90;;;17.90;52.20;;;;;;5009560;28;20152;-79
2021/04/01 05:14:11;;;;;;;1.05;0.82;;;17.90;51.90;;;;;;5014562;28;20212;-78
2021/04/01 05:16:38;;;;;;;1.05;0.93;;;17.90;52.30;;;;;;4996779;28;20172;-78
2021/04/01 05:19:08;;;;;;;1.67;1.10;;;17.90;52.00;;;;;;4995773;28;20517;-81
2021/04/01 05:21:49;;;;;;;1.42;1.05;;;17.90;52.00;;;;;;5015167;28;20183;-79
2021/04/01 05:24:18;;;;;;;1.20;1.00;;;18.00;51.80;;;;;;5015012;28;20164;-80
2021/04/01 05:29:32;;;;;;;1.00;0.90;;;18.00;51.60;;;;;;5014719;28;20223;-80
2021/04/01 05:32:19;;;;;;;1.45;1.00;;;18.00;51.70;;;;;;5013051;28;20152;-80
2021/04/01 05:34:49;;;;;;;1.13;0.82;;;18.00;51.50;;;;;;5015209;28;20143;-79
2021/04/01 05:37:18;;;;;;;1.30;1.00;;;18.00;51.70;;;;;;5014277;28;20168;-80
2021/04/01 05:39:58;;;;;;;2.63;0.98;;;18.00;51.60;;;;;;4997068;28;20156;-80
2021/04/01 05:42:27;;;;;;;1.20;0.90;;;18.00;51.50;;;;;;4997235;28;20198;-80
2021/04/01 06:04:15;;;;;;;1.17;1.00;;;18.10;51.00;;;;;;4930392;29;20756;-79
2021/04/01 06:06:49;;;;;;;1.60;1.10;;;18.10;51.00;;;;;;4935037;29;20201;-79
2021/04/01 06:09:25;;;;;;;1.13;0.90;;;18.10;51.00;;;;;;4950568;29;20226;-80
2021/04/01 06:12:05;;;;;;;1.30;0.80;;;18.00;51.10;;;;;;4933581;29;20174;-80
2021/04/01 06:14:34;;;;;;;1.05;0.90;;;18.00;50.90;;;;;;4932730;29;20197;-79
2021/04/01 06:17:07;;;;;;;1.10;1.00;;;18.00;51.00;;;;;;4933018;29;20179;-80
2021/04/01 06:19:39;;;;;;;1.30;1.00;;;18.00;50.80;;;;;;4930512;29;20205;-80
2021/04/01 06:22:12;;;;;;;1.20;1.10;;;18.10;50.90;;;;;;4915888;29;20171;-80
2021/04/01 06:24:38;;;;;;;0.93;0.90;;;18.10;50.60;;;;;;4918153;29;20172;-79
2021/04/01 06:27:21;;;;;;;1.45;0.90;;;18.10;50.40;;;;;;4951981;28;20215;-80
2021/04/01 06:32:39;;;;;;;1.15;0.80;;;18.20;50.20;;;;;;4979622;28;20156;-80
2021/04/01 06:35:11;;;;;;;1.05;0.77;;;18.20;50.10;;;;;;5000730;28;20153;-78
2021/04/01 06:40:25;;;;;;;0.80;0.77;;;18.20;50.00;;;;;;5016397;28;20166;-79
2021/04/01 06:43:10;;;;;;;0.93;0.90;;;18.20;49.80;;;;;;4998112;28;20148;-79
2021/04/01 06:45:35;;;;;;;0.63;0.60;;;18.10;50.10;;;;;;4999921;28;20164;-80
2021/04/01 06:48:06;;;;;;;0.70;0.70;;;18.10;50.00;;;;;;4998059;28;20195;-79
2021/04/01 06:50:41;;;;;;;1.58;0.93;;;18.20;49.60;;;;;;4999722;28;20214;-81
2021/04/01 06:53:12;;;;;;;1.13;0.82;;;18.30;49.30;;;;;;4986244;28;20171;-80
2021/04/01 06:55:47;;;;;;;1.60;0.82;;;18.30;49.50;;;;;;5000969;28;20148;-79
2021/04/01 06:58:50;;;;;;;1.05;0.90;;;18.30;49.60;;;;;;4984497;28;20175;-79
2021/04/01 07:01:24;;;;;;;0.80;0.80;;;18.20;49.60;;;;;;5015584;28;20180;-79
2021/04/01 07:03:56;;;;;;;1.10;0.82;;;18.20;49.40;;;;;;5001187;28;20171;-79
2021/04/01 07:06:31;;;;;;;1.23;0.90;;;18.30;49.60;;;;;;4998719;28;20168;-79
2021/04/01 07:09:07;;;;;;;0.90;0.77;;;18.20;49.40;;;;;;4983579;28;20171;-79
2021/04/01 07:12:09;;;;;;;1.52;1.05;;;18.20;49.20;;;;;;4998608;28;20164;-80
2021/04/01 07:14:37;;;;;;;0.60;0.60;;;18.40;49.00;;;;;;5013168;28;20159;-80
2021/04/01 07:23:20;;;;;;;1.30;0.60;;;18.40;48.90;;;;;;4974535;29;20193;-79
2021/04/01 07:49:02;;;;;;;3.28;0.82;;;18.40;48.10;;;;;;4803112;30;20279;-80
2021/04/01 07:54:28;;;;;;;0.90;0.70;;;18.40;47.90;;;;;;4791353;30;20188;-79
2021/04/01 08:00:08;;;;;;;1.60;0.80;;;18.40;47.70;;;;;;4742993;30;20201;-79
2021/04/01 08:05:45;;;;;;;3.00;0.90;;;18.40;47.50;;;;;;4719135;30;20199;-79
2021/04/01 08:08:12;;;;;;;2.47;0.77;;;18.40;47.60;;;;;;4725112;30;20714;-79
2021/04/01 08:10:43;;;;;;;3.03;0.70;;;18.40;47.30;;;;;;4737435;30;20210;-79
2021/04/01 08:13:13;;;;;;;3.15;0.70;;;18.40;46.80;;;;;;4742597;30;20279;-80
2021/04/01 08:15:49;;;;;;;3.58;0.70;;;18.40;47.30;;;;;;4757222;30;20184;-79
2021/04/01 08:20:46;;;;;;;2.83;0.85;;;18.40;46.90;;;;;;4795057;29;20217;-80
2021/04/01 08:23:20;;;;;;;1.30;0.70;;;18.40;46.80;;;;;;4824606;29;20220;-79
2021/04/01 08:26:00;;;;;;;0.60;0.60;;;18.40;46.60;;;;;;4813146;29;20163;-77
2021/04/01 08:28:46;;;;;;;1.05;0.80;;;18.40;46.60;;;;;;4814447;29;20218;-79
2021/04/01 08:36:26;;;;;;;0.65;0.60;;;18.50;46.20;;;;;;4829964;29;20224;-79
2021/04/01 08:39:03;;;;;;;0.82;0.68;;;18.50;46.30;;;;;;4869399;29;20245;-78
2021/04/01 09:03:47;;;;;;;1.90;0.90;;;18.40;45.70;;;;;;5361170;23;20221;-78
2021/04/01 09:06:24;;;;;;;1.67;0.73;;;18.40;45.70;;;;;;5037357;28;20239;-78
2021/04/01 09:09:24;;;;;;;1.67;1.08;;;18.40;45.50;;;;;;5004185;28;20206;-79
2021/04/01 09:11:56;;;;;;;2.35;1.08;;;18.40;45.60;;;;;;5017254;28;20207;-79
2021/04/01 09:14:31;;;;;;;2.05;0.70;;;18.40;45.60;;;;;;5017187;28;20162;-78
2021/04/01 09:17:12;;;;;;;1.65;0.60;;;18.40;45.60;;;;;;5001815;28;20159;-79
2021/04/01 09:19:44;;;;;;;0.90;0.80;;;18.30;45.60;;;;;;5034526;28;20290;-80
2021/04/01 09:22:30;;;;;;;1.48;0.90;;;18.40;45.40;;;;;;5000382;28;20183;-79
2021/04/01 09:25:04;;;;;;;1.35;0.70;;;18.40;45.20;;;;;;5000277;28;20182;-81
2021/04/01 09:27:44;;;;;;;0.65;0.60;;;18.30;45.10;;;;;;5034808;28;20214;-79
2021/04/01 09:30:13;;;;;;;1.25;0.68;;;18.30;44.90;;;;;;5033721;28;20168;-80
2021/04/01 09:32:40;;;;;;;1.00;0.60;;;18.40;44.70;;;;;;5013277;28;20215;-78
2021/04/01 09:35:11;;;;;;;1.58;0.80;;;18.50;44.80;;;;;;5016570;28;20266;-80
2021/04/01 09:37:53;;;;;;;0.90;0.70;;;18.60;44.40;;;;;;5015580;28;20179;-79
2021/04/01 09:40:26;;;;;;;1.92;0.70;;;18.60;44.00;;;;;;5049087;28;20194;-80
2021/04/01 09:43:25;;;;;;;2.78;0.80;;;18.60;44.40;;;;;;5034075;28;20164;-80
2021/04/01 09:46:22;;;;;;;2.17;0.70;;;18.50;44.50;;;;;;5036068;28;20143;-79
2021/04/01 09:49:16;;;;;;;1.02;0.70;;;18.50;44.60;;;;;;5038179;28;20190;-81
2021/04/01 09:51:56;;;;;;;0.60;0.60;;;18.50;44.50;;;;;;4999293;28;20195;-81
2021/04/01 09:54:24;;;;;;;1.08;0.75;;;18.50;44.30;;;;;;5003143;28;20207;-79
2021/04/01 09:57:02;;;;;;;1.85;0.70;;;18.50;44.10;;;;;;5007705;28;20148;-80
2021/04/01 09:59:54;;;;;;;0.85;0.77;;;18.60;43.90;;;;;;5016429;28;20159;-78
2021/04/01 10:02:29;;;;;;;2.55;0.70;;;18.50;44.40;;;;;;5003569;28;20206;-79
2021/04/01 10:05:02;;;;;;;1.40;0.75;;;18.50;44.50;;;;;;5014746;28;20174;-78
2021/04/01 10:07:32;;;;;;;1.08;0.60;;;18.50;44.10;;;;;;5053768;28;20201;-78
2021/04/01 10:09:58;;;;;;;0.50;0.50;;;18.50;43.50;;;;;;5008340;28;20235;-79
2021/04/01 10:12:36;;;;;;;1.20;0.75;;;18.60;43.30;;;;;;5007218;28;20179;-80
2021/04/01 10:15:10;;;;;;;0.68;0.60;;;18.60;43.40;;;;;;5057564;28;20147;-80
2021/04/01 10:17:38;;;;;;;0.73;0.60;;;18.60;43.80;;;;;;5040201;28;20230;-79
2021/04/01 10:20:05;;;;;;;1.10;0.60;;;18.60;43.50;;;;;;5024939;28;20174;-80
2021/04/01 10:22:35;;;;;;;1.02;0.63;;;18.60;43.60;;;;;;5040560;28;20226;-80
2021/04/01 10:25:09;;;;;;;1.27;0.88;;;18.50;43.80;;;;;;5024992;28;20150;-80
2021/04/01 10:27:43;;;;;;;0.60;0.50;;;18.60;43.50;;;;;;5044709;28;20202;-80
2021/04/01 10:30:11;;;;;;;0.98;0.73;;;18.60;43.30;;;;;;5045302;28;20170;-80
2021/04/01 10:33:07;;;;;;;0.50;0.50;;;18.60;43.30;;;;;;5044472;28;20135;-81
2021/04/01 10:35:41;;;;;;;1.67;0.45;;;18.60;43.30;;;;;;4963161;29;20250;-83
2021/04/01 10:38:13;;;;;;;0.90;0.68;;;18.70;42.80;;;;;;5028741;23;20238;-79
2021/04/01 10:40:40;;;;;;;0.47;0.47;;;18.70;42.90;;;;;;5045120;28;20147;-79
2021/04/01 10:43:13;;;;;;;1.30;0.70;;;18.60;42.90;;;;;;5061586;28;20159;-82
2021/04/01 10:45:46;;;;;;;1.30;0.50;;;18.60;42.80;;;;;;5061302;28;20178;-80
2021/04/01 10:49:04;;;;;;;2.40;0.90;;;18.60;42.90;;;;;;5045224;28;20206;-80
2021/04/01 10:51:51;;;;;;;1.23;0.60;;;18.60;42.60;;;;;;5040981;23;20249;-77
2021/04/01 10:54:24;;;;;;;0.65;0.60;;;18.60;43.00;;;;;;5000959;28;20175;-77
2021/04/01 10:57:02;;;;;;;1.08;0.57;;;18.60;42.60;;;;;;4987892;28;20280;-77
2021/04/01 11:00:15;;;;;;;0.63;0.63;;;18.50;42.70;;;;;;4974999;28;20197;-77
2021/04/01 11:03:18;;;;;;;0.50;0.50;;;18.50;42.50;;;;;;4924738;29;20175;-77
2021/04/01 11:06:34;;;;;;;0.65;0.50;;;18.50;42.50;;;;;;4867232;29;20197;-77
2021/04/01 11:09:03;;;;;;;0.63;0.63;;;18.60;42.50;;;;;;4864775;29;20237;-77
2021/04/01 11:14:43;;;;;;;1.20;0.55;;;18.60;42.10;;;;;;4836475;29;20184;-76
2021/04/01 11:17:26;;;;;;;0.90;0.70;;;18.60;42.10;;;;;;4829077;29;20209;-77
2021/04/01 11:19:53;;;;;;;1.30;0.60;;;18.70;42.20;;;;;;4813737;29;20222;-78
2021/04/01 11:22:22;;;;;;;1.77;0.65;;;18.60;42.20;;;;;;4838445;29;20206;-77
2021/04/01 11:24:57;;;;;;;3.22;0.47;;;18.70;41.80;;;;;;4826397;29;20175;-80
2021/04/01 11:27:29;;;;;;;1.48;0.60;;;18.70;41.70;;;;;;4843198;29;20217;-78
2021/04/01 11:29:57;;;;;;;0.95;0.60;;;18.70;41.80;;;;;;4843346;29;20269;-78
2021/04/01 11:32:38;;;;;;;1.48;0.63;;;18.70;42.00;;;;;;4842098;29;20200;-79
2021/04/01 11:35:05;;;;;;;0.82;0.60;;;18.70;41.50;;;;;;4825776;29;20251;-79
2021/04/01 11:37:35;;;;;;;0.40;0.40;;;18.70;41.40;;;;;;4824765;29;20201;-78
2021/04/01 11:40:19;;;;;;;0.82;0.43;;;18.80;41.10;;;;;;4875676;29;20191;-78
2021/04/01 11:43:02;;;;;;;0.75;0.55;;;18.80;41.30;;;;;;4945637;29;20254;-79
2021/04/01 11:45:36;;;;;;;0.90;0.55;;;18.80;40.90;;;;;;4953371;29;20172;-77
2021/04/01 11:48:05;;;;;;;0.38;0.38;;;18.80;40.90;;;;;;4973664;28;20247;-80
2021/04/01 11:50:31;;;;;;;0.75;0.60;;;18.90;41.00;;;;;;4966887;28;20223;-77
2021/04/01 11:53:00;;;;;;;2.15;0.60;;;18.80;40.70;;;;;;4980002;28;20246;-78
2021/04/01 11:55:27;;;;;;;1.45;0.60;;;18.80;41.00;;;;;;4995312;28;20152;-79
2021/04/01 11:57:56;;;;;;;1.00;0.50;;;18.80;41.10;;;;;;5007361;28;20179;-80
2021/04/01 12:00:31;;;;;;;2.25;0.80;;;18.70;41.20;;;;;;5011786;28;20171;-81
2021/04/01 12:03:13;;;;;;;3.30;0.50;;;18.70;41.20;;;;;;4990530;28;20175;-80
2021/04/01 12:05:48;;;;;;;2.92;0.50;;;18.70;40.90;;;;;;5002636;28;20159;-79
2021/04/01 12:08:14;;;;;;;1.52;0.60;;;18.80;40.80;;;;;;4978934;28;20208;-77
2021/04/01 12:10:40;;;;;;;0.90;0.70;;;18.70;41.00;;;;;;5004300;28;20203;-78
2021/04/01 12:13:21;;;;;;;0.70;0.60;;;18.70;40.80;;;;;;4984491;28;20259;-81
2021/04/01 12:15:47;;;;;;;2.78;0.50;;;18.70;40.80;;;;;;4980631;28;20534;-80
2021/04/01 12:18:15;;;;;;;1.15;0.52;;;18.80;40.50;;;;;;5016148;28;20155;-79
2021/04/01 12:20:42;;;;;;;1.00;0.60;;;18.80;40.60;;;;;;5014003;28;20183;-80
2021/04/01 12:23:24;;;;;;;2.22;0.65;;;18.80;40.80;;;;;;5013477;28;20184;-80
2021/04/01 12:26:03;;;;;;;4.72;0.88;;;18.70;40.70;;;;;;5015005;28;20199;-81
2021/04/01 12:28:28;;;;;;;2.50;0.60;;;18.70;40.80;;;;;;5016347;28;20196;-78
2021/04/01 12:33:37;;;;;;;0.90;0.60;;;18.70;40.50;;;;;;5382274;23;20253;-80
2021/04/01 12:48:22;;;;;;;1.17;0.55;;;18.80;40.10;;;;;;5592195;23;20242;-77
2021/04/01 12:51:43;;;;;;;0.60;0.60;;;18.80;39.90;;;;;;5006909;28;20171;-78
2021/04/01 13:02:39;;;;;;;2.47;0.70;;;18.90;40.00;;;;;;4775991;26;20229;-77
2021/04/01 13:05:08;;;;;;;1.90;0.60;;;18.80;40.10;;;;;;5055199;28;20142;-78
2021/04/01 13:08:08;;;;;;;4.18;0.63;;;18.80;40.20;;;;;;5050456;28;20213;-78
2021/04/01 13:11:01;;;;;;;1.73;0.60;;;18.80;40.00;;;;;;5028400;28;20155;-78
2021/04/01 13:13:46;;;;;;;;;;;;;;;;;;;;;
2021/04/01 13:16:34;;;;;;;2.28;0.60;;;18.90;39.90;;;;;;5028766;28;20238;-78
2021/04/01 13:19:00;;;;;;;2.35;1.35;;;18.90;39.80;;;;;;5026388;28;20173;-77
2021/04/01 13:21:33;;;;;;;1.73;0.60;;;18.90;39.80;;;;;;5008319;28;20563;-78
2021/04/01 13:24:05;;;;;;;0.98;0.60;;;18.90;39.60;;;;;;5043272;28;20214;-78
2021/04/01 13:26:35;;;;;;;1.83;0.50;;;18.90;39.40;;;;;;5028885;28;20166;-78
2021/04/01 13:29:03;;;;;;;1.45;0.60;;;18.90;39.50;;;;;;5044826;28;20222;-79
2021/04/01 13:34:27;;;;;;;3.33;0.60;;;18.90;39.50;;;;;;5032734;28;20159;-79
2021/04/01 13:44:41;;;;;;;3.60;0.70;;;18.90;38.90;;;;;;5040257;28;20254;-78
2021/04/01 13:47:09;;;;;;;3.25;0.57;;;19.00;38.90;;;;;;5031630;28;20252;-79
2021/04/01 13:49:35;;;;;;;3.60;0.68;;;19.00;39.10;;;;;;5060741;28;20173;-78
2021/04/01 13:57:50;;;;;;;5.00;0.65;;;19.00;38.80;;;;;;5043984;28;20214;-79
2021/04/01 14:00:23;;;;;;;0.85;0.50;;;18.90;39.10;;;;;;5042417;28;20555;-79
2021/04/01 14:11:16;;;;;;;3.78;0.57;;;18.90;38.90;;;;;;5033413;28;20192;-78
2021/04/01 14:13:42;;;;;;;0.98;0.50;;;18.80;39.00;;;;;;5039762;28;20170;-78
2021/04/01 14:16:15;;;;;;;0.93;0.60;;;18.80;39.00;;;;;;5051237;28;20202;-79
2021/04/01 14:18:45;;;;;;;3.50;0.65;;;18.70;38.70;;;;;;5046111;28;20162;-78
2021/04/01 14:21:13;;;;;;;3.45;0.70;;;18.80;38.50;;;;;;5054620;28;20249;-78
2021/04/01 14:23:41;;;;;;;3.38;0.50;;;18.80;38.70;;;;;;5058270;28;20178;-80
2021/04/01 14:26:11;;;;;;;0.90;0.40;;;18.80;38.70;;;;;;5055481;28;20246;-80
2021/04/01 14:28:41;;;;;;;2.42;0.57;;;18.90;38.90;;;;;;5031100;28;20238;-79
2021/04/01 14:31:09;;;;;;;1.02;0.60;;;18.80;38.90;;;;;;5042289;28;20204;-83
2021/04/01 14:33:44;;;;;;;0.60;0.40;;;18.90;38.70;;;;;;5053634;28;20158;-80
2021/04/01 14:36:13;;;;;;;2.67;0.50;;;18.80;38.70;;;;;;5073138;28;20221;-80
2021/04/01 14:38:43;;;;;;;5.78;0.45;;;18.80;38.70;;;;;;5053180;28;20159;-80
2021/04/01 14:46:25;;;;;;;0.93;0.52;;;18.90;38.40;;;;;;5055321;28;20711;-80
2021/04/01 14:48:55;;;;;;;1.63;0.55;;;18.90;38.60;;;;;;5033233;28;20197;-80
2021/04/01 14:51:22;;;;;;;3.80;0.60;;;18.90;38.50;;;;;;5047874;28;20173;-77
2021/04/01 14:53:53;;;;;;;3.63;0.60;;;18.90;38.60;;;;;;5066896;28;20167;-80
2021/04/01 14:56:23;;;;;;;1.45;0.98;;;18.90;38.40;;;;;;5021605;28;20250;-80
2021/04/01 14:58:50;;;;;;;2.38;0.50;;;18.90;38.40;;;;;;5047750;28;20281;-79
2021/04/01 15:01:19;;;;;;;2.17;0.50;;;18.90;38.40;;;;;;5045564;28;20237;-79
2021/04/01 15:03:54;;;;;;;0.43;0.43;;;18.90;38.30;;;;;;5028001;28;20223;-79
2021/04/01 15:06:20;;;;;;;1.08;0.40;;;19.00;38.30;;;;;;5027097;28;20177;-79
2021/04/01 15:08:55;;;;;;;3.03;0.68;;;19.00;38.10;;;;;;5028951;28;20214;-79
2021/04/01 15:11:22;;;;;;;0.85;0.50;;;19.10;37.90;;;;;;5029912;28;20234;-78
2021/04/01 15:13:56;;;;;;;1.02;0.40;;;19.10;38.00;;;;;;5048444;28;20159;-80
2021/04/01 15:16:23;;;;;;;1.48;0.50;;;19.10;38.10;;;;;;5032542;28;20157;-78
2021/04/01 15:18:49;;;;;;;2.70;0.70;;;19.10;38.10;;;;;;5030117;28;20231;-78
2021/04/01 15:21:24;;;;;;;0.98;0.47;;;19.10;38.20;;;;;;5029674;28;20162;-78
2021/04/01 15:23:50;;;;;;;1.42;0.50;;;19.10;37.80;;;;;;5045269;28;20158;-77
2021/04/01 15:26:17;;;;;;;1.52;0.40;;;19.10;37.70;;;;;;5043852;28;20159;-77
2021/04/01 15:28:43;;;;;;;1.85;0.65;;;19.10;37.50;;;;;;5042376;28;20183;-78
2021/04/01 15:31:11;;;;;;;0.40;0.40;;;19.10;37.40;;;;;;5042572;28;20179;-78
2021/04/01 15:33:39;;;;;;;2.08;0.47;;;19.10;37.30;;;;;;5041754;28;20153;-78
2021/04/01 15:36:07;;;;;;;1.92;0.38;;;19.10;37.00;;;;;;5026625;28;20156;-78
2021/04/01 15:38:33;;;;;;;2.88;0.50;;;19.10;37.10;;;;;;5042497;28;20667;-78
2021/04/01 15:41:01;;;;;;;0.70;0.50;;;19.10;37.20;;;;;;5043635;28;20209;-77
2021/04/01 15:43:33;;;;;;;2.42;0.85;;;19.10;37.50;;;;;;5045118;28;20151;-78
2021/04/01 15:45:59;;;;;;;0.75;0.40;;;19.00;37.30;;;;;;5043410;28;20222;-78
2021/04/01 15:48:26;;;;;;;1.08;0.60;;;19.00;37.00;;;;;;5043684;28;20191;-78
2021/04/01 15:51:00;;;;;;;3.30;0.50;;;19.00;37.10;;;;;;5042904;28;20214;-78
2021/04/01 15:53:27;;;;;;;0.38;0.38;;;19.00;37.40;;;;;;5043014;28;20169;-77
2021/04/01 15:55:53;;;;;;;0.70;0.40;;;19.00;36.90;;;;;;5041872;28;20201;-78
2021/04/01 15:58:20;;;;;;;1.73;0.50;;;19.00;36.90;;;;;;5008712;28;20581;-79
2021/04/01 16:00:45;;;;;;;0.88;0.50;;;19.10;36.60;;;;;;5044403;28;20571;-78
2021/04/01 16:03:12;;;;;;;1.73;0.57;;;19.00;36.60;;;;;;5041331;28;20163;-78
2021/04/01 16:05:40;;;;;;;0.57;0.50;;;19.00;36.80;;;;;;5041579;28;20151;-79
2021/04/01 16:08:08;;;;;;;1.02;0.50;;;19.00;36.60;;;;;;5041735;28;20187;-77